Terminal Aerodrome Forecast
Issued by NWS

Home | Current Version | Previous Version | Text Only | Print | Product List | Glossary On
Versions: 1 2 3 4 5 6 7 8 9 10 11 12
000
FTUS42 KMLB 210500
TAFSUA
TAF
KSUA 210535Z 2106/2206 00000KT P6SM SCT050 BKN150 OVC250
     FM211400 23004KT P6SM VCSH SCT040 BKN120 OVC250
     FM211800 15007KT P6SM VCSH SCT040 BKN100 OVC250
     FM220100 00000KT P6SM VCSH SCT060 SCT100 BKN250=

USA.gov is the U.S. government's official web portal to all federal, state and local government web resources and services.